sensor_id;sensor_type;location;lat;lon;timestamp;pressure;altitude;pressure_sealevel;temperature
13219;BMP180;6674;49.152;11.918;2022-07-01T00:01:55;95689.22;;;21.62
13219;BMP180;6674;49.152;11.918;2022-07-01T00:04:21;95699.13;;;21.52
13219;BMP180;6674;49.152;11.918;2022-07-01T00:06:50;95715.75;;;21.61
13219;BMP180;6674;49.152;11.918;2022-07-01T00:09:17;95715.56;;;21.57
13219;BMP180;6674;49.152;11.918;2022-07-01T00:11:45;95712.75;;;21.67
13219;BMP180;6674;49.152;11.918;2022-07-01T00:14:12;95713.63;;;21.63
13219;BMP180;6674;49.152;11.918;2022-07-01T00:16:39;95718.41;;;21.74
13219;BMP180;6674;49.152;11.918;2022-07-01T00:19:05;95725.50;;;21.73
13219;BMP180;6674;49.152;11.918;2022-07-01T00:21:32;95715.81;;;21.74
13219;BMP180;6674;49.152;11.918;2022-07-01T00:23:59;95715.84;;;21.69
13219;BMP180;6674;49.152;11.918;2022-07-01T00:26:26;95729.59;;;21.66
13219;BMP180;6674;49.152;11.918;2022-07-01T00:28:54;95736.94;;;21.51
13219;BMP180;6674;49.152;11.918;2022-07-01T00:31:20;95737.72;;;21.51
13219;BMP180;6674;49.152;11.918;2022-07-01T00:33:47;95733.25;;;21.52
13219;BMP180;6674;49.152;11.918;2022-07-01T00:36:13;95747.72;;;21.31
13219;BMP180;6674;49.152;11.918;2022-07-01T00:38:40;95759.41;;;21.57
13219;BMP180;6674;49.152;11.918;2022-07-01T00:41:06;95763.00;;;21.61
13219;BMP180;6674;49.152;11.918;2022-07-01T00:43:34;95771.38;;;21.63
13219;BMP180;6674;49.152;11.918;2022-07-01T00:46:03;95770.78;;;21.65
13219;BMP180;6674;49.152;11.918;2022-07-01T00:48:31;95763.78;;;21.61
13219;BMP180;6674;49.152;11.918;2022-07-01T00:50:59;95767.72;;;21.45
13219;BMP180;6674;49.152;11.918;2022-07-01T00:53:25;95771.91;;;21.46
13219;BMP180;6674;49.152;11.918;2022-07-01T00:55:53;95772.22;;;21.40
13219;BMP180;6674;49.152;11.918;2022-07-01T00:58:20;95774.84;;;21.45
13219;BMP180;6674;49.152;11.918;2022-07-01T01:00:47;95775.03;;;21.48
13219;BMP180;6674;49.152;11.918;2022-07-01T01:03:15;95787.16;;;21.26
13219;BMP180;6674;49.152;11.918;2022-07-01T01:05:41;95783.47;;;21.27
13219;BMP180;6674;49.152;11.918;2022-07-01T01:08:09;95796.06;;;21.25
13219;BMP180;6674;49.152;11.918;2022-07-01T01:10:36;95796.66;;;21.04
13219;BMP180;6674;49.152;11.918;2022-07-01T01:13:03;95790.91;;;21.20
13219;BMP180;6674;49.152;11.918;2022-07-01T01:15:30;95782.50;;;21.05
13219;BMP180;6674;49.152;11.918;2022-07-01T01:17:57;95793.06;;;21.00
13219;BMP180;6674;49.152;11.918;2022-07-01T01:20:24;95785.13;;;20.86
13219;BMP180;6674;49.152;11.918;2022-07-01T01:22:52;95771.28;;;20.81
13219;BMP180;6674;49.152;11.918;2022-07-01T01:25:19;95776.25;;;20.82
13219;BMP180;6674;49.152;11.918;2022-07-01T01:27:46;95768.50;;;20.91
13219;BMP180;6674;49.152;11.918;2022-07-01T01:30:12;95780.09;;;20.90
13219;BMP180;6674;49.152;11.918;2022-07-01T01:32:39;95768.91;;;20.61
13219;BMP180;6674;49.152;11.918;2022-07-01T01:35:07;95761.50;;;20.68
13219;BMP180;6674;49.152;11.918;2022-07-01T01:37:34;95773.22;;;20.52
13219;BMP180;6674;49.152;11.918;2022-07-01T01:40:02;95771.97;;;20.68
13219;BMP180;6674;49.152;11.918;2022-07-01T01:42:28;95770.59;;;20.52
13219;BMP180;6674;49.152;11.918;2022-07-01T01:44:56;95776.72;;;20.43
13219;BMP180;6674;49.152;11.918;2022-07-01T01:47:22;95776.41;;;20.49
13219;BMP180;6674;49.152;11.918;2022-07-01T01:49:49;95771.09;;;20.54
13219;BMP180;6674;49.152;11.918;2022-07-01T01:52:16;95768.78;;;20.71
13219;BMP180;6674;49.152;11.918;2022-07-01T01:54:43;95773.53;;;20.69
13219;BMP180;6674;49.152;11.918;2022-07-01T01:57:11;95777.59;;;20.80
13219;BMP180;6674;49.152;11.918;2022-07-01T01:59:37;95778.38;;;20.80
13219;BMP180;6674;49.152;11.918;2022-07-01T02:02:04;95785.25;;;20.53
13219;BMP180;6674;49.152;11.918;2022-07-01T02:04:31;95783.00;;;20.65
13219;BMP180;6674;49.152;11.918;2022-07-01T02:06:58;95788.59;;;20.35
13219;BMP180;6674;49.152;11.918;2022-07-01T02:09:25;95783.28;;;20.40
13219;BMP180;6674;49.152;11.918;2022-07-01T02:11:51;95784.31;;;20.44
13219;BMP180;6674;49.152;11.918;2022-07-01T02:14:20;95778.56;;;20.42
13219;BMP180;6674;49.152;11.918;2022-07-01T02:16:47;95772.81;;;20.40
13219;BMP180;6674;49.152;11.918;2022-07-01T02:19:13;95781.28;;;20.33
13219;BMP180;6674;49.152;11.918;2022-07-01T02:21:40;95784.88;;;20.18
13219;BMP180;6674;49.152;11.918;2022-07-01T02:24:07;95782.97;;;20.24
13219;BMP180;6674;49.152;11.918;2022-07-01T02:26:34;95790.66;;;20.15
13219;BMP180;6674;49.152;11.918;2022-07-01T02:29:01;95801.84;;;19.97
13219;BMP180;6674;49.152;11.918;2022-07-01T02:31:29;95792.28;;;20.11
13219;BMP180;6674;49.152;11.918;2022-07-01T02:33:55;95801.34;;;19.95
13219;BMP180;6674;49.152;11.918;2022-07-01T02:36:22;95803.22;;;19.90
13219;BMP180;6674;49.152;11.918;2022-07-01T02:38:49;95796.47;;;19.79
13219;BMP180;6674;49.152;11.918;2022-07-01T02:41:15;95798.81;;;19.81
13219;BMP180;6674;49.152;11.918;2022-07-01T02:43:42;95808.34;;;20.00
13219;BMP180;6674;49.152;11.918;2022-07-01T02:46:08;95824.78;;;19.77
13219;BMP180;6674;49.152;11.918;2022-07-01T02:48:36;95828.41;;;19.81
13219;BMP180;6674;49.152;11.918;2022-07-01T02:51:03;95838.88;;;19.81
13219;BMP180;6674;49.152;11.918;2022-07-01T02:53:30;95841.50;;;19.81
13219;BMP180;6674;49.152;11.918;2022-07-01T02:55:56;95844.03;;;19.96
13219;BMP180;6674;49.152;11.918;2022-07-01T02:58:24;95852.97;;;19.90
13219;BMP180;6674;49.152;11.918;2022-07-01T03:00:51;95854.25;;;19.92
13219;BMP180;6674;49.152;11.918;2022-07-01T03:03:19;95866.06;;;19.90
13219;BMP180;6674;49.152;11.918;2022-07-01T03:05:47;95868.13;;;19.93
13219;BMP180;6674;49.152;11.918;2022-07-01T03:08:14;95863.16;;;19.58
13219;BMP180;6674;49.152;11.918;2022-07-01T03:10:41;95860.69;;;19.34
13219;BMP180;6674;49.152;11.918;2022-07-01T03:13:07;95852.06;;;19.33
13219;BMP180;6674;49.152;11.918;2022-07-01T03:15:34;95859.06;;;19.43
13219;BMP180;6674;49.152;11.918;2022-07-01T03:18:01;95855.41;;;19.44
13219;BMP180;6674;49.152;11.918;2022-07-01T03:20:27;95859.47;;;19.59
13219;BMP180;6674;49.152;11.918;2022-07-01T03:22:55;95867.28;;;19.64
13219;BMP180;6674;49.152;11.918;2022-07-01T03:25:22;95867.31;;;19.59
13219;BMP180;6674;49.152;11.918;2022-07-01T03:27:48;95862.63;;;19.56
13219;BMP180;6674;49.152;11.918;2022-07-01T03:30:15;95863.69;;;19.55
13219;BMP180;6674;49.152;11.918;2022-07-01T03:32:43;95859.91;;;19.33
13219;BMP180;6674;49.152;11.918;2022-07-01T03:35:10;95851.31;;;19.28
13219;BMP180;6674;49.152;11.918;2022-07-01T03:37:55;95853.88;;;19.38
13219;BMP180;6674;49.152;11.918;2022-07-01T03:40:22;95871.13;;;19.34
13219;BMP180;6674;49.152;11.918;2022-07-01T03:42:50;95875.28;;;19.40
13219;BMP180;6674;49.152;11.918;2022-07-01T03:45:16;95869.25;;;19.44
13219;BMP180;6674;49.152;11.918;2022-07-01T03:47:46;95872.72;;;19.35
13219;BMP180;6674;49.152;11.918;2022-07-01T03:50:14;95888.38;;;19.40
13219;BMP180;6674;49.152;11.918;2022-07-01T03:52:41;95886.81;;;19.44
13219;BMP180;6674;49.152;11.918;2022-07-01T03:55:10;95884.19;;;19.39
13219;BMP180;6674;49.152;11.918;2022-07-01T03:57:36;95896.22;;;19.40
13219;BMP180;6674;49.152;11.918;2022-07-01T04:00:05;95904.59;;;19.37
13219;BMP180;6674;49.152;11.918;2022-07-01T04:02:33;95898.16;;;19.24
13219;BMP180;6674;49.152;11.918;2022-07-01T04:05:00;95911.22;;;19.29
13219;BMP180;6674;49.152;11.918;2022-07-01T04:07:28;95911.50;;;19.23
13219;BMP180;6674;49.152;11.918;2022-07-01T04:09:55;95919.28;;;19.33
13219;BMP180;6674;49.152;11.918;2022-07-01T04:12:23;95930.25;;;19.35
13219;BMP180;6674;49.152;11.918;2022-07-01T04:14:49;95938.13;;;19.30
13219;BMP180;6674;49.152;11.918;2022-07-01T04:17:16;95945.50;;;19.23
13219;BMP180;6674;49.152;11.918;2022-07-01T04:19:42;95952.84;;;19.11
13219;BMP180;6674;49.152;11.918;2022-07-01T04:22:09;95958.63;;;19.13
13219;BMP180;6674;49.152;11.918;2022-07-01T04:24:54;95956.25;;;19.16
13219;BMP180;6674;49.152;11.918;2022-07-01T04:27:22;95964.38;;;19.10
13219;BMP180;6674;49.152;11.918;2022-07-01T04:29:49;95969.38;;;19.02
13219;BMP180;6674;49.152;11.918;2022-07-01T04:32:15;95962.03;;;19.08
13219;BMP180;6674;49.152;11.918;2022-07-01T04:34:42;95959.97;;;18.91
13219;BMP180;6674;49.152;11.918;2022-07-01T04:37:09;95958.13;;;18.91
13219;BMP180;6674;49.152;11.918;2022-07-01T04:39:35;95949.78;;;18.84
13219;BMP180;6674;49.152;11.918;2022-07-01T04:42:03;95958.66;;;18.83
13219;BMP180;6674;49.152;11.918;2022-07-01T04:44:31;95951.38;;;18.85
13219;BMP180;6674;49.152;11.918;2022-07-01T04:46:58;95948.81;;;18.60
13219;BMP180;6674;49.152;11.918;2022-07-01T04:49:25;95942.22;;;18.83
13219;BMP180;6674;49.152;11.918;2022-07-01T04:51:52;95952.44;;;18.79
13219;BMP180;6674;49.152;11.918;2022-07-01T04:54:20;95964.91;;;18.97
13219;BMP180;6674;49.152;11.918;2022-07-01T04:56:48;95971.72;;;19.08
13219;BMP180;6674;49.152;11.918;2022-07-01T04:59:15;95969.88;;;19.08
13219;BMP180;6674;49.152;11.918;2022-07-01T05:01:44;95973.50;;;19.12
13219;BMP180;6674;49.152;11.918;2022-07-01T05:04:11;95974.56;;;19.16
13219;BMP180;6674;49.152;11.918;2022-07-01T05:06:38;95980.03;;;19.15
13219;BMP180;6674;49.152;11.918;2022-07-01T05:09:04;95963.34;;;18.96
13219;BMP180;6674;49.152;11.918;2022-07-01T05:11:31;95953.69;;;18.97
13219;BMP180;6674;49.152;11.918;2022-07-01T05:13:57;95960.44;;;19.07
13219;BMP180;6674;49.152;11.918;2022-07-01T05:16:24;95966.47;;;19.08
13219;BMP180;6674;49.152;11.918;2022-07-01T05:18:52;95971.19;;;19.01
13219;BMP180;6674;49.152;11.918;2022-07-01T05:21:36;95969.09;;;18.93
13219;BMP180;6674;49.152;11.918;2022-07-01T05:24:20;95964.13;;;19.06
13219;BMP180;6674;49.152;11.918;2022-07-01T05:26:47;95969.66;;;19.00
13219;BMP180;6674;49.152;11.918;2022-07-01T05:29:14;95972.75;;;19.07
13219;BMP180;6674;49.152;11.918;2022-07-01T05:31:42;95977.91;;;19.22
13219;BMP180;6674;49.152;11.918;2022-07-01T05:34:11;95983.34;;;19.35
13219;BMP180;6674;49.152;11.918;2022-07-01T05:36:37;95989.09;;;19.42
13219;BMP180;6674;49.152;11.918;2022-07-01T05:39:04;95989.81;;;19.52
13219;BMP180;6674;49.152;11.918;2022-07-01T05:41:31;95990.56;;;19.58
13219;BMP180;6674;49.152;11.918;2022-07-01T05:43:58;95991.41;;;19.48
13219;BMP180;6674;49.152;11.918;2022-07-01T05:46:24;95984.03;;;19.55
13219;BMP180;6674;49.152;11.918;2022-07-01T05:48:51;95997.91;;;19.56
13219;BMP180;6674;49.152;11.918;2022-07-01T05:51:19;96020.19;;;19.48
13219;BMP180;6674;49.152;11.918;2022-07-01T05:53:46;96020.50;;;19.27
13219;BMP180;6674;49.152;11.918;2022-07-01T05:56:13;96019.78;;;19.17
13219;BMP180;6674;49.152;11.918;2022-07-01T05:58:39;96043.34;;;18.92
13219;BMP180;6674;49.152;11.918;2022-07-01T06:01:06;96038.66;;;18.84
13219;BMP180;6674;49.152;11.918;2022-07-01T06:03:32;96042.31;;;18.83
13219;BMP180;6674;49.152;11.918;2022-07-01T06:05:59;96048.84;;;18.81
13219;BMP180;6674;49.152;11.918;2022-07-01T06:08:27;96031.84;;;18.78
13219;BMP180;6674;49.152;11.918;2022-07-01T06:10:53;96018.81;;;18.68
13219;BMP180;6674;49.152;11.918;2022-07-01T06:13:20;96015.19;;;18.40
13219;BMP180;6674;49.152;11.918;2022-07-01T06:15:47;96012.03;;;18.48
13219;BMP180;6674;49.152;11.918;2022-07-01T06:18:13;96009.41;;;18.67
13219;BMP180;6674;49.152;11.918;2022-07-01T06:20:40;96009.41;;;18.72
13219;BMP180;6674;49.152;11.918;2022-07-01T06:23:07;96013.84;;;18.72
13219;BMP180;6674;49.152;11.918;2022-07-01T06:25:35;96027.44;;;18.64
13219;BMP180;6674;49.152;11.918;2022-07-01T06:28:01;96034.75;;;18.67
13219;BMP180;6674;49.152;11.918;2022-07-01T06:30:28;96041.56;;;18.68
13219;BMP180;6674;49.152;11.918;2022-07-01T06:32:54;96047.28;;;18.70
13219;BMP180;6674;49.152;11.918;2022-07-01T06:35:21;96057.25;;;18.53
13219;BMP180;6674;49.152;11.918;2022-07-01T06:37:48;96076.03;;;18.35
13219;BMP180;6674;49.152;11.918;2022-07-01T06:40:15;96073.16;;;18.27
13219;BMP180;6674;49.152;11.918;2022-07-01T06:42:43;96064.78;;;18.25
13219;BMP180;6674;49.152;11.918;2022-07-01T06:45:09;96047.84;;;18.37
13219;BMP180;6674;49.152;11.918;2022-07-01T06:47:36;96039.75;;;18.34
13219;BMP180;6674;49.152;11.918;2022-07-01T06:50:03;96046.00;;;18.43
13219;BMP180;6674;49.152;11.918;2022-07-01T06:52:31;96059.56;;;18.25
13219;BMP180;6674;49.152;11.918;2022-07-01T06:54:57;96061.38;;;18.15
13219;BMP180;6674;49.152;11.918;2022-07-01T06:57:24;96064.47;;;18.07
13219;BMP180;6674;49.152;11.918;2022-07-01T06:59:52;96060.31;;;18.06
13219;BMP180;6674;49.152;11.918;2022-07-01T07:02:19;96068.41;;;18.09
13219;BMP180;6674;49.152;11.918;2022-07-01T07:04:45;96080.38;;;17.95
13219;BMP180;6674;49.152;11.918;2022-07-01T07:07:12;96085.59;;;17.90
13219;BMP180;6674;49.152;11.918;2022-07-01T07:09:39;96094.41;;;17.79
13219;BMP180;6674;49.152;11.918;2022-07-01T07:12:06;96106.38;;;17.66
13219;BMP180;6674;49.152;11.918;2022-07-01T07:14:33;96107.44;;;17.70
13219;BMP180;6674;49.152;11.918;2022-07-01T07:17:00;96115.19;;;17.55
13219;BMP180;6674;49.152;11.918;2022-07-01T07:19:27;96121.66;;;17.42
13219;BMP180;6674;49.152;11.918;2022-07-01T07:21:53;96124.06;;;17.13
13219;BMP180;6674;49.152;11.918;2022-07-01T07:24:21;96120.06;;;16.95
13219;BMP180;6674;49.152;11.918;2022-07-01T07:26:48;96118.13;;;16.81
13219;BMP180;6674;49.152;11.918;2022-07-01T07:29:15;96111.13;;;16.86
13219;BMP180;6674;49.152;11.918;2022-07-01T07:31:41;96109.31;;;16.56
13219;BMP180;6674;49.152;11.918;2022-07-01T07:34:09;96122.88;;;16.58
13219;BMP180;6674;49.152;11.918;2022-07-01T07:36:36;96119.63;;;16.46
13219;BMP180;6674;49.152;11.918;2022-07-01T07:39:02;96117.94;;;16.56
13219;BMP180;6674;49.152;11.918;2022-07-01T07:41:31;96135.00;;;16.79
13219;BMP180;6674;49.152;11.918;2022-07-01T07:43:57;96133.53;;;16.87
13219;BMP180;6674;49.152;11.918;2022-07-01T07:46:24;96129.34;;;16.86
13219;BMP180;6674;49.152;11.918;2022-07-01T07:48:50;96140.50;;;16.82
13219;BMP180;6674;49.152;11.918;2022-07-01T07:51:18;96145.50;;;16.88
13219;BMP180;6674;49.152;11.918;2022-07-01T07:53:48;96153.78;;;16.81
13219;BMP180;6674;49.152;11.918;2022-07-01T07:56:15;96148.94;;;16.63
13219;BMP180;6674;49.152;11.918;2022-07-01T07:58:41;96159.78;;;16.50
13219;BMP180;6674;49.152;11.918;2022-07-01T08:01:09;96171.00;;;16.50
13219;BMP180;6674;49.152;11.918;2022-07-01T08:03:36;96172.69;;;16.40
13219;BMP180;6674;49.152;11.918;2022-07-01T08:06:02;96162.69;;;16.53
13219;BMP180;6674;49.152;11.918;2022-07-01T08:08:31;96168.66;;;16.54
13219;BMP180;6674;49.152;11.918;2022-07-01T08:10:58;96169.34;;;16.44
13219;BMP180;6674;49.152;11.918;2022-07-01T08:13:25;96152.28;;;16.53
13219;BMP180;6674;49.152;11.918;2022-07-01T08:15:52;96154.47;;;16.40
13219;BMP180;6674;49.152;11.918;2022-07-01T08:18:18;96155.84;;;16.00
13219;BMP180;6674;49.152;11.918;2022-07-01T08:20:45;96155.91;;;16.05
13219;BMP180;6674;49.152;11.918;2022-07-01T08:23:12;96164.84;;;16.35
13219;BMP180;6674;49.152;11.918;2022-07-01T08:25:39;96161.69;;;16.59
13219;BMP180;6674;49.152;11.918;2022-07-01T08:28:06;96168.34;;;16.77
13219;BMP180;6674;49.152;11.918;2022-07-01T08:30:33;96172.72;;;17.02
13219;BMP180;6674;49.152;11.918;2022-07-01T08:32:59;96163.22;;;16.86
13219;BMP180;6674;49.152;11.918;2022-07-01T08:35:26;96172.72;;;17.02
13219;BMP180;6674;49.152;11.918;2022-07-01T08:37:53;96167.34;;;17.14
13219;BMP180;6674;49.152;11.918;2022-07-01T08:40:24;96180.06;;;17.05
13219;BMP180;6674;49.152;11.918;2022-07-01T08:42:54;96176.69;;;16.79
13219;BMP180;6674;49.152;11.918;2022-07-01T08:45:22;96173.22;;;16.99
13219;BMP180;6674;49.152;11.918;2022-07-01T08:47:50;96162.56;;;17.01
13219;BMP180;6674;49.152;11.918;2022-07-01T08:50:17;96172.81;;;17.12
13219;BMP180;6674;49.152;11.918;2022-07-01T08:52:44;96175.94;;;17.14
13219;BMP180;6674;49.152;11.918;2022-07-01T08:55:13;96188.56;;;17.27
13219;BMP180;6674;49.152;11.918;2022-07-01T08:57:40;96180.91;;;17.16
13219;BMP180;6674;49.152;11.918;2022-07-01T09:00:09;96180.84;;;17.42
13219;BMP180;6674;49.152;11.918;2022-07-01T09:02:54;96186.31;;;17.40
13219;BMP180;6674;49.152;11.918;2022-07-01T09:05:22;96198.00;;;17.33
13219;BMP180;6674;49.152;11.918;2022-07-01T09:07:49;96205.69;;;17.18
13219;BMP180;6674;49.152;11.918;2022-07-01T09:10:20;96186.47;;;17.24
13219;BMP180;6674;49.152;11.918;2022-07-01T09:12:47;96211.50;;;17.25
13219;BMP180;6674;49.152;11.918;2022-07-01T09:15:24;96221.41;;;17.23
13219;BMP180;6674;49.152;11.918;2022-07-01T09:17:53;96221.47;;;17.02
13219;BMP180;6674;49.152;11.918;2022-07-01T09:20:25;96225.31;;;16.94
13219;BMP180;6674;49.152;11.918;2022-07-01T09:23:02;96212.97;;;16.85
13219;BMP180;6674;49.152;11.918;2022-07-01T09:25:31;96214.56;;;16.86
13219;BMP180;6674;49.152;11.918;2022-07-01T09:28:10;96224.16;;;16.85
13219;BMP180;6674;49.152;11.918;2022-07-01T09:30:40;96220.06;;;16.89
13219;BMP180;6674;49.152;11.918;2022-07-01T09:33:08;96224.66;;;16.78
13219;BMP180;6674;49.152;11.918;2022-07-01T09:35:35;96233.16;;;16.68
13219;BMP180;6674;49.152;11.918;2022-07-01T09:38:03;96237.56;;;16.68
13219;BMP180;6674;49.152;11.918;2022-07-01T09:40:52;96247.56;;;16.81
13219;BMP180;6674;49.152;11.918;2022-07-01T09:43:20;96242.28;;;16.71
13219;BMP180;6674;49.152;11.918;2022-07-01T09:45:59;96238.56;;;16.62
13219;BMP180;6674;49.152;11.918;2022-07-01T09:48:43;96235.41;;;16.60
13219;BMP180;6674;49.152;11.918;2022-07-01T09:51:11;96245.63;;;16.66
13219;BMP180;6674;49.152;11.918;2022-07-01T09:53:38;96232.25;;;16.58
13219;BMP180;6674;49.152;11.918;2022-07-01T09:56:05;96232.84;;;16.65
13219;BMP180;6674;49.152;11.918;2022-07-01T09:58:34;96243.03;;;16.66
13219;BMP180;6674;49.152;11.918;2022-07-01T10:01:08;96234.97;;;16.68
13219;BMP180;6674;49.152;11.918;2022-07-01T10:03:37;96231.66;;;16.51
13219;BMP180;6674;49.152;11.918;2022-07-01T10:06:15;96245.59;;;16.40
13219;BMP180;6674;49.152;11.918;2022-07-01T10:08:58;96258.56;;;16.35
13219;BMP180;6674;49.152;11.918;2022-07-01T10:11:47;96267.44;;;16.18
13219;BMP180;6674;49.152;11.918;2022-07-01T10:14:19;96260.97;;;16.20
13219;BMP180;6674;49.152;11.918;2022-07-01T10:16:47;96255.59;;;16.27
13219;BMP180;6674;49.152;11.918;2022-07-01T10:19:28;96247.16;;;16.20
13219;BMP180;6674;49.152;11.918;2022-07-01T10:22:00;96237.63;;;16.25
13219;BMP180;6674;49.152;11.918;2022-07-01T10:24:28;96241.38;;;16.34
13219;BMP180;6674;49.152;11.918;2022-07-01T10:26:58;96247.75;;;16.48
13219;BMP180;6674;49.152;11.918;2022-07-01T10:29:30;96244.47;;;16.57
13219;BMP180;6674;49.152;11.918;2022-07-01T10:32:06;96242.22;;;16.66
13219;BMP180;6674;49.152;11.918;2022-07-01T10:34:34;96236.44;;;16.59
13219;BMP180;6674;49.152;11.918;2022-07-01T10:37:03;96234.00;;;16.79
13219;BMP180;6674;49.152;11.918;2022-07-01T10:39:54;96232.78;;;16.86
13219;BMP180;6674;49.152;11.918;2022-07-01T10:42:27;96239.41;;;16.98
13219;BMP180;6674;49.152;11.918;2022-07-01T10:45:01;96233.81;;;17.16
13219;BMP180;6674;49.152;11.918;2022-07-01T10:47:30;96243.88;;;17.34
13219;BMP180;6674;49.152;11.918;2022-07-01T10:49:58;96242.78;;;17.25
13219;BMP180;6674;49.152;11.918;2022-07-01T10:52:25;96245.38;;;17.20
13219;BMP180;6674;49.152;11.918;2022-07-01T10:54:54;96257.19;;;17.06
13219;BMP180;6674;49.152;11.918;2022-07-01T10:57:27;96260.44;;;17.18
13219;BMP180;6674;49.152;11.918;2022-07-01T10:59:55;96257.69;;;17.29
13219;BMP180;6674;49.152;11.918;2022-07-01T11:02:24;96274.91;;;17.30
13219;BMP180;6674;49.152;11.918;2022-07-01T11:04:54;96267.63;;;17.06
13219;BMP180;6674;49.152;11.918;2022-07-01T11:07:23;96276.53;;;17.10
13219;BMP180;6674;49.152;11.918;2022-07-01T11:09:51;96279.50;;;16.92
13219;BMP180;6674;49.152;11.918;2022-07-01T11:12:17;96288.97;;;17.03
13219;BMP180;6674;49.152;11.918;2022-07-01T11:14:47;96287.69;;;17.06
13219;BMP180;6674;49.152;11.918;2022-07-01T11:17:17;96289.47;;;17.00
13219;BMP180;6674;49.152;11.918;2022-07-01T11:19:47;96286.25;;;16.93
13219;BMP180;6674;49.152;11.918;2022-07-01T11:22:19;96285.28;;;16.99
13219;BMP180;6674;49.152;11.918;2022-07-01T11:24:46;96289.47;;;17.00
13219;BMP180;6674;49.152;11.918;2022-07-01T11:27:12;96281.69;;;17.05
13219;BMP180;6674;49.152;11.918;2022-07-01T11:29:39;96276.50;;;17.05
13219;BMP180;6674;49.152;11.918;2022-07-01T11:32:06;96285.63;;;17.08
13219;BMP180;6674;49.152;11.918;2022-07-01T11:34:35;96280.19;;;17.14
13219;BMP180;6674;49.152;11.918;2022-07-01T11:37:08;96275.47;;;17.11
13219;BMP180;6674;49.152;11.918;2022-07-01T11:40:04;96268.97;;;17.09
13219;BMP180;6674;49.152;11.918;2022-07-01T11:42:32;96280.13;;;17.04
13219;BMP180;6674;49.152;11.918;2022-07-01T11:44:58;96273.28;;;16.98
13219;BMP180;6674;49.152;11.918;2022-07-01T11:47:26;96286.66;;;16.81
13219;BMP180;6674;49.152;11.918;2022-07-01T11:49:53;96280.81;;;16.69
13219;BMP180;6674;49.152;11.918;2022-07-01T11:52:21;96285.13;;;16.58
13219;BMP180;6674;49.152;11.918;2022-07-01T11:54:50;96293.41;;;16.77
13219;BMP180;6674;49.152;11.918;2022-07-01T11:57:19;96304.13;;;16.80
13219;BMP180;6674;49.152;11.918;2022-07-01T11:59:48;96299.69;;;16.81
13219;BMP180;6674;49.152;11.918;2022-07-01T12:02:16;96292.63;;;16.76
13219;BMP180;6674;49.152;11.918;2022-07-01T12:04:44;96303.19;;;16.65
13219;BMP180;6674;49.152;11.918;2022-07-01T12:07:12;96299.69;;;16.81
13219;BMP180;6674;49.152;11.918;2022-07-01T12:09:39;96296.97;;;16.71
13219;BMP180;6674;49.152;11.918;2022-07-01T12:12:07;96301.25;;;16.82
13219;BMP180;6674;49.152;11.918;2022-07-01T12:14:49;96293.78;;;16.90
13219;BMP180;6674;49.152;11.918;2022-07-01T12:17:16;96284.47;;;16.94
13219;BMP180;6674;49.152;11.918;2022-07-01T12:19:44;96283.34;;;16.64
13219;BMP180;6674;49.152;11.918;2022-07-01T12:22:13;96290.94;;;16.91
13219;BMP180;6674;49.152;11.918;2022-07-01T12:24:41;96295.75;;;16.78
13219;BMP180;6674;49.152;11.918;2022-07-01T12:27:09;96287.19;;;16.56
13219;BMP180;6674;49.152;11.918;2022-07-01T12:29:50;96277.75;;;16.50
13219;BMP180;6674;49.152;11.918;2022-07-01T12:32:19;96278.19;;;16.69
13219;BMP180;6674;49.152;11.918;2022-07-01T12:34:49;96279.97;;;16.89
13219;BMP180;6674;49.152;11.918;2022-07-01T12:37:18;96286.22;;;16.88
13219;BMP180;6674;49.152;11.918;2022-07-01T12:39:46;96290.31;;;16.80
13219;BMP180;6674;49.152;11.918;2022-07-01T12:42:23;96293.78;;;16.90
13219;BMP180;6674;49.152;11.918;2022-07-01T12:44:52;96305.41;;;16.78
13219;BMP180;6674;49.152;11.918;2022-07-01T12:47:20;96310.00;;;16.71
13219;BMP180;6674;49.152;11.918;2022-07-01T12:49:47;96315.72;;;16.68
13219;BMP180;6674;49.152;11.918;2022-07-01T12:52:24;96320.78;;;16.58
13219;BMP180;6674;49.152;11.918;2022-07-01T12:54:51;96311.84;;;16.49
13219;BMP180;6674;49.152;11.918;2022-07-01T12:57:28;96309.41;;;16.21
13219;BMP180;6674;49.152;11.918;2022-07-01T12:59:56;96320.25;;;16.35
13219;BMP180;6674;49.152;11.918;2022-07-01T13:02:23;96336.84;;;16.12
13219;BMP180;6674;49.152;11.918;2022-07-01T13:04:50;96356.72;;;16.18
13219;BMP180;6674;49.152;11.918;2022-07-01T13:07:16;96381.16;;;16.17
13219;BMP180;6674;49.152;11.918;2022-07-01T13:09:43;96380.72;;;16.20
13219;BMP180;6674;49.152;11.918;2022-07-01T13:12:10;96361.00;;;16.08
13219;BMP180;6674;49.152;11.918;2022-07-01T13:14:36;96350.38;;;16.09
13219;BMP180;6674;49.152;11.918;2022-07-01T13:17:04;96365.41;;;16.07
13219;BMP180;6674;49.152;11.918;2022-07-01T13:19:31;96387.50;;;16.05
13219;BMP180;6674;49.152;11.918;2022-07-01T13:22:00;96386.22;;;16.07
13219;BMP180;6674;49.152;11.918;2022-07-01T13:24:26;96384.19;;;16.09
13219;BMP180;6674;49.152;11.918;2022-07-01T13:26:53;96408.47;;;16.15
13219;BMP180;6674;49.152;11.918;2022-07-01T13:29:20;96419.66;;;15.99
13219;BMP180;6674;49.152;11.918;2022-07-01T13:31:46;96430.00;;;15.94
13219;BMP180;6674;49.152;11.918;2022-07-01T13:34:14;96435.75;;;15.80
13219;BMP180;6674;49.152;11.918;2022-07-01T13:36:41;96420.28;;;15.57
13219;BMP180;6674;49.152;11.918;2022-07-01T13:39:07;96429.03;;;15.51
13219;BMP180;6674;49.152;11.918;2022-07-01T13:41:34;96440.03;;;15.42
13219;BMP180;6674;49.152;11.918;2022-07-01T13:44:01;96437.81;;;15.34
13219;BMP180;6674;49.152;11.918;2022-07-01T13:46:27;96439.81;;;15.43
13219;BMP180;6674;49.152;11.918;2022-07-01T13:48:54;96438.44;;;15.41
13219;BMP180;6674;49.152;11.918;2022-07-01T13:51:22;96462.53;;;15.36
13219;BMP180;6674;49.152;11.918;2022-07-01T13:53:49;96478.94;;;15.37
13219;BMP180;6674;49.152;11.918;2022-07-01T13:56:15;96470.25;;;15.31
13219;BMP180;6674;49.152;11.918;2022-07-01T13:58:43;96468.13;;;15.28
13219;BMP180;6674;49.152;11.918;2022-07-01T14:01:09;96465.31;;;15.30
13219;BMP180;6674;49.152;11.918;2022-07-01T14:03:36;96461.03;;;15.24
13219;BMP180;6674;49.152;11.918;2022-07-01T14:06:03;96458.00;;;15.15
13219;BMP180;6674;49.152;11.918;2022-07-01T14:08:31;96464.75;;;15.16
13219;BMP180;6674;49.152;11.918;2022-07-01T14:10:57;96467.94;;;15.18
13219;BMP180;6674;49.152;11.918;2022-07-01T14:13:24;96454.38;;;15.16
13219;BMP180;6674;49.152;11.918;2022-07-01T14:15:51;96436.47;;;15.31